createdAt,value
2022-08-16T00:01:28.931Z,98980.59
2022-08-16T00:04:00.717Z,98987.69
2022-08-16T00:06:29.358Z,98986.41
2022-08-16T00:08:55.973Z,98982.25
2022-08-16T00:11:22.731Z,98993.41
2022-08-16T00:13:54.127Z,99000.34
2022-08-16T00:17:00.717Z,99002.44
2022-08-16T00:19:22.722Z,98991.00
2022-08-16T00:21:53.295Z,98991.56
2022-08-16T00:24:32.827Z,98985.88
2022-08-16T00:27:03.459Z,98990.72
2022-08-16T00:35:35.797Z,98997.50
2022-08-16T00:38:40.825Z,99000.13
2022-08-16T00:40:54.121Z,99000.06
2022-08-16T00:43:43.318Z,98993.63
2022-08-16T00:47:08.781Z,98997.13
2022-08-16T00:50:16.294Z,98999.78
2022-08-16T00:52:50.559Z,98998.62
2022-08-16T00:55:22.104Z,99000.34
2022-08-16T01:00:28.672Z,98995.00
2022-08-16T01:03:01.142Z,98999.78
2022-08-16T01:05:47.085Z,98997.75
2022-08-16T01:08:35.319Z,99006.62
2022-08-16T01:11:05.601Z,99002.28
2022-08-16T01:13:37.732Z,98999.97
2022-08-16T01:16:12.848Z,99007.22
2022-08-16T01:18:51.882Z,99008.34
2022-08-16T01:25:38.946Z,99015.63
2022-08-16T01:30:49.899Z,99006.81
2022-08-16T01:33:19.495Z,99017.56
2022-08-16T01:35:52.669Z,99013.94
2022-08-16T01:38:34.353Z,99017.94
2022-08-16T01:41:21.618Z,99016.72
2022-08-16T01:43:54.265Z,99006.00
2022-08-16T01:46:39.992Z,99010.41
2022-08-16T01:49:15.378Z,99008.78
2022-08-16T01:51:44.787Z,99021.56
2022-08-16T01:54:13.245Z,99018.78
2022-08-16T01:57:22.853Z,99014.81
2022-08-16T02:00:28.986Z,99011.63
2022-08-16T02:02:56.424Z,99012.03
2022-08-16T02:05:23.555Z,99006.84
2022-08-16T02:07:51.995Z,99010.00
2022-08-16T02:10:19.781Z,99010.81
2022-08-16T02:15:25.947Z,99016.00
2022-08-16T02:17:56.013Z,99014.78
2022-08-16T02:20:26.250Z,99020.38
2022-08-16T02:22:56.893Z,99014.03
2022-08-16T02:25:24.002Z,99018.00
2022-08-16T02:27:51.664Z,99013.22
2022-08-16T02:30:43.427Z,99006.84
2022-08-16T02:33:13.018Z,99011.13
2022-08-16T02:35:54.050Z,98996.97
2022-08-16T02:38:25.125Z,99002.16
2022-08-16T02:40:54.520Z,98998.56
2022-08-16T02:43:26.799Z,98997.91
2022-08-16T02:46:33.656Z,98996.38
2022-08-16T02:49:59.335Z,98999.22
2022-08-16T02:52:29.180Z,98997.22
2022-08-16T02:54:58.072Z,99000.31
2022-08-16T02:57:26.299Z,99003.09
2022-08-16T02:59:55.223Z,99000.31
2022-08-16T03:02:31.830Z,98997.06
2022-08-16T03:05:00.464Z,98997.66
2022-08-16T03:07:36.991Z,99003.31
2022-08-16T03:10:06.996Z,98999.59
2022-08-16T03:12:36.790Z,98992.19
2022-08-16T03:15:09.027Z,99006.72
2022-08-16T03:17:37.116Z,99002.25
2022-08-16T03:20:31.843Z,99013.31
2022-08-16T03:22:59.672Z,99006.56
2022-08-16T03:28:13.495Z,99013.38
2022-08-16T03:30:44.167Z,99014.97
2022-08-16T03:33:11.072Z,99018.56
2022-08-16T03:36:31.188Z,99019.81
2022-08-16T03:39:36.375Z,99028.56
2022-08-16T03:42:09.809Z,99029.34
2022-08-16T03:44:43.546Z,99035.75
2022-08-16T03:47:11.958Z,99041.59
2022-08-16T03:52:31.271Z,99048.41
2022-08-16T03:54:59.657Z,99039.59
2022-08-16T03:57:32.061Z,99045.63
2022-08-16T04:00:36.210Z,99046.06
2022-08-16T04:03:08.817Z,99060.91
2022-08-16T04:05:48.562Z,99062.13
2022-08-16T04:08:23.323Z,99071.69
2022-08-16T04:10:52.820Z,99064.94
2022-08-16T04:14:00.625Z,99059.69
2022-08-16T04:16:07.525Z,99061.59
2022-08-16T04:18:37.004Z,99058.06
2022-08-16T04:21:04.261Z,99053.72
2022-08-16T04:23:54.712Z,99050.19
2022-08-16T04:26:21.524Z,99052.19
2022-08-16T04:28:55.816Z,99048.97
2022-08-16T04:31:23.701Z,99052.97
2022-08-16T04:33:51.193Z,99051.00
2022-08-16T04:36:20.142Z,99060.59
2022-08-16T04:38:47.364Z,99055.47
2022-08-16T04:44:56.067Z,99060.66
2022-08-16T04:47:32.945Z,99064.66
2022-08-16T04:50:00.772Z,99069.03
2022-08-16T04:52:33.820Z,99064.25
2022-08-16T04:55:06.385Z,99066.66
2022-08-16T04:57:35.169Z,99079.44
2022-08-16T05:00:31.135Z,99068.25
2022-08-16T05:02:56.029Z,99071.84
2022-08-16T05:05:23.275Z,99069.06
2022-08-16T05:07:58.380Z,99068.63
2022-08-16T05:10:28.217Z,99078.22
2022-08-16T05:13:00.648Z,99081.44
2022-08-16T05:15:28.669Z,99083.44
2022-08-16T05:17:59.079Z,99085.81
2022-08-16T05:34:24.847Z,99092.97
2022-08-16T05:36:57.209Z,99093.34
2022-08-16T05:39:25.437Z,99093.34
2022-08-16T05:41:54.511Z,99091.34
2022-08-16T05:44:25.102Z,99089.75
2022-08-16T05:46:55.817Z,99084.16
2022-08-16T05:49:23.680Z,99088.94
2022-08-16T05:51:50.871Z,99088.13
2022-08-16T05:54:25.562Z,99080.94
2022-08-16T05:56:56.400Z,99073.34
2022-08-16T05:59:24.472Z,99077.63
2022-08-16T06:01:53.947Z,99080.44
2022-08-16T06:04:35.655Z,99082.81
2022-08-16T06:07:24.300Z,99082.72
2022-08-16T06:10:02.208Z,99084.72
2022-08-16T06:12:29.819Z,99076.97
2022-08-16T06:15:01.825Z,99073.56
2022-08-16T06:17:42.554Z,99077.94
2022-08-16T06:20:23.232Z,99090.59
2022-08-16T06:23:03.267Z,99103.22
2022-08-16T06:25:36.053Z,99096.53
2022-08-16T06:28:08.568Z,99107.66
2022-08-16T06:30:43.946Z,99101.28
2022-08-16T06:33:13.595Z,99093.19
2022-08-16T06:35:49.379Z,99093.87
2022-08-16T06:38:32.935Z,99091.22
2022-08-16T06:41:13.695Z,99099.59
2022-08-16T06:44:02.508Z,99097.34
2022-08-16T06:46:37.758Z,99095.81
2022-08-16T06:49:08.710Z,99084.22
2022-08-16T06:51:46.214Z,99089.69
2022-08-16T06:54:15.700Z,99088.38
2022-08-16T06:56:42.655Z,99085.66
2022-08-16T07:03:28.453Z,99090.41
2022-08-16T07:05:59.396Z,99096.63
2022-08-16T07:08:27.343Z,99100.94
2022-08-16T07:10:54.461Z,99094.69
2022-08-16T07:13:43.783Z,99098.16
2022-08-16T07:16:15.523Z,99100.94
2022-08-16T07:19:01.948Z,99099.44
2022-08-16T07:21:45.616Z,99090.41
2022-08-16T07:24:29.757Z,99094.69
2022-08-16T07:26:58.244Z,99099.47
2022-08-16T07:29:25.191Z,99107.16
2022-08-16T07:31:53.692Z,99109.19
2022-08-16T07:37:23.231Z,99111.47
2022-08-16T07:39:50.829Z,99113.84
2022-08-16T07:42:20.277Z,99110.28
2022-08-16T07:44:57.049Z,99110.66
2022-08-16T07:47:31.691Z,99126.97
2022-08-16T07:49:59.936Z,99120.44
2022-08-16T07:52:32.340Z,99125.94
2022-08-16T07:54:59.969Z,99128.44
2022-08-16T07:57:27.034Z,99116.16
2022-08-16T07:59:57.155Z,99124.53
2022-08-16T08:02:27.495Z,99129.44
2022-08-16T08:04:55.986Z,99128.53
2022-08-16T08:07:28.112Z,99128.94
2022-08-16T08:09:55.857Z,99126.06
2022-08-16T08:12:32.475Z,99132.41
2022-08-16T08:15:09.874Z,99126.81
2022-08-16T08:17:42.252Z,99132.78
2022-08-16T08:20:13.579Z,99143.59
2022-08-16T08:23:01.121Z,99140.66
2022-08-16T08:25:52.058Z,99144.06
2022-08-16T08:28:18.570Z,99146.50
2022-08-16T08:30:52.272Z,99136.81
2022-08-16T08:33:29.185Z,99140.69
2022-08-16T08:36:01.091Z,99145.38
2022-08-16T08:38:44.948Z,99144.19
2022-08-16T08:41:15.525Z,99143.41
2022-08-16T08:43:46.958Z,99141.38
2022-08-16T08:46:21.797Z,99149.53
2022-08-16T08:48:59.571Z,99148.88
2022-08-16T08:51:35.873Z,99147.78
2022-08-16T08:54:09.282Z,99143.94
2022-08-16T08:56:45.450Z,99137.28
2022-08-16T08:59:19.802Z,99141.59
2022-08-16T09:01:57.190Z,99132.66
2022-08-16T09:04:27.152Z,99132.94
2022-08-16T09:07:25.041Z,99139.28
2022-08-16T09:10:06.813Z,99138.13
2022-08-16T09:12:40.696Z,99135.19
2022-08-16T09:15:15.659Z,99142.47
2022-08-16T09:17:53.630Z,99142.09
2022-08-16T09:20:23.750Z,99131.66
2022-08-16T09:23:07.698Z,99127.47
2022-08-16T09:26:44.167Z,99125.91
2022-08-16T09:29:16.776Z,99123.34
2022-08-16T09:31:53.459Z,99120.06
2022-08-16T09:34:22.479Z,99114.94
2022-08-16T09:36:49.199Z,99108.81
2022-08-16T09:39:21.707Z,99115.03
2022-08-16T09:41:53.707Z,99112.66
2022-08-16T09:45:12.404Z,99111.19
2022-08-16T09:47:11.254Z,99112.56
2022-08-16T09:49:41.138Z,99107.81
2022-08-16T09:52:08.724Z,99104.81
2022-08-16T09:54:37.897Z,99111.16
2022-08-16T09:57:04.980Z,99114.63
2022-08-16T09:59:38.849Z,99110.78
2022-08-16T10:02:26.412Z,99106.97
2022-08-16T10:04:55.668Z,99106.56
2022-08-16T10:07:24.346Z,99098.66
2022-08-16T10:09:55.018Z,99094.09
2022-08-16T10:12:55.803Z,99098.75
2022-08-16T10:15:24.720Z,99099.56
2022-08-16T10:18:00.396Z,99098.03
2022-08-16T10:20:34.009Z,99095.00
2022-08-16T10:23:06.956Z,99096.88
2022-08-16T10:27:18.889Z,99087.72
2022-08-16T10:28:32.389Z,99098.00
2022-08-16T10:31:07.796Z,99098.84
2022-08-16T10:33:34.868Z,99094.59
2022-08-16T10:36:08.374Z,99093.59
2022-08-16T10:38:38.220Z,99087.37
2022-08-16T10:41:07.422Z,99090.28
2022-08-16T10:44:54.605Z,99090.41
2022-08-16T10:48:02.964Z,99099.47
2022-08-16T10:50:32.609Z,99095.31
2022-08-16T10:53:05.727Z,99092.19
2022-08-16T10:55:40.937Z,99084.84
2022-08-16T10:58:16.712Z,99092.97
2022-08-16T11:00:46.677Z,99093.66
2022-08-16T11:06:05.967Z,99079.84
2022-08-16T11:08:40.779Z,99077.69
2022-08-16T11:11:19.203Z,99075.16
2022-08-16T11:14:10.920Z,99077.44
2022-08-16T11:19:22.971Z,99069.91
2022-08-16T11:24:44.552Z,99061.09
2022-08-16T11:27:21.242Z,99060.25
2022-08-16T11:29:53.408Z,99065.78
2022-08-16T11:32:41.250Z,99072.28
2022-08-16T11:35:18.671Z,99077.97
2022-08-16T11:38:46.411Z,99087.28
2022-08-16T11:40:59.562Z,99114.31
2022-08-16T11:43:35.547Z,99119.34
2022-08-16T11:46:43.280Z,99083.28
2022-08-16T11:49:39.891Z,99102.97
2022-08-16T11:52:21.602Z,99106.88
2022-08-16T11:54:56.751Z,99117.03
2022-08-16T11:57:23.876Z,99111.75
2022-08-16T11:59:51.691Z,99113.12
2022-08-16T12:02:31.271Z,99101.44
2022-08-16T12:07:41.795Z,99108.47
2022-08-16T12:10:19.067Z,99107.28
2022-08-16T12:12:47.003Z,99106.84
2022-08-16T12:15:15.144Z,99102.97
2022-08-16T12:17:43.397Z,99104.88
2022-08-16T12:20:16.126Z,99092.09
2022-08-16T12:22:46.105Z,99087.56
2022-08-16T12:25:16.275Z,99092.88
2022-08-16T12:27:44.528Z,99093.37
2022-08-16T12:30:21.508Z,99085.41
2022-08-16T12:32:56.503Z,99088.25
2022-08-16T12:35:26.405Z,99083.00
2022-08-16T12:37:56.950Z,99086.16
2022-08-16T12:40:29.060Z,99087.69
2022-08-16T12:43:00.731Z,99080.84
2022-08-16T12:45:35.626Z,99081.06
2022-08-16T12:48:39.404Z,99074.56
2022-08-16T12:51:19.404Z,99082.00
2022-08-16T12:53:52.471Z,99093.19
2022-08-16T12:56:21.365Z,99097.16
2022-08-16T12:58:51.979Z,99099.66
2022-08-16T13:01:26.687Z,99095.44
2022-08-16T13:04:20.895Z,99096.34
2022-08-16T13:07:05.995Z,99090.59
2022-08-16T13:09:42.273Z,99090.56
2022-08-16T13:12:21.026Z,99087.66
2022-08-16T13:14:50.034Z,99083.41
2022-08-16T13:17:29.834Z,99071.94
2022-08-16T13:20:12.599Z,99063.66
2022-08-16T13:23:28.257Z,99062.59
2022-08-16T13:26:17.286Z,99058.44
2022-08-16T13:28:46.132Z,99063.78
2022-08-16T13:31:15.977Z,99065.25
2022-08-16T13:33:43.661Z,99070.81
2022-08-16T13:36:21.263Z,99069.41
2022-08-16T13:38:59.635Z,99063.91
2022-08-16T13:41:30.098Z,99066.41
2022-08-16T13:43:59.499Z,99072.81
2022-08-16T13:46:27.310Z,99078.87
2022-08-16T13:48:55.383Z,99069.00
2022-08-16T13:51:29.116Z,99064.81
2022-08-16T13:54:02.945Z,99063.87
2022-08-16T13:56:37.629Z,99063.16
2022-08-16T13:59:19.893Z,99064.50
2022-08-16T14:01:55.550Z,99062.06
2022-08-16T14:04:31.903Z,99057.78
2022-08-16T14:06:59.891Z,99051.50
2022-08-16T14:09:28.583Z,99059.12
2022-08-16T14:11:57.598Z,99047.59
2022-08-16T14:14:28.624Z,99045.03
2022-08-16T14:16:58.816Z,99040.87
2022-08-16T14:19:26.511Z,99042.81
2022-08-16T14:22:14.955Z,99045.25
2022-08-16T14:24:48.562Z,99031.44
2022-08-16T14:27:18.017Z,99032.03
2022-08-16T14:29:49.496Z,99041.59
2022-08-16T14:32:33.236Z,99035.84
2022-08-16T14:35:07.149Z,99038.56
2022-08-16T14:37:35.268Z,99033.28
2022-08-16T14:40:03.352Z,99036.84
2022-08-16T14:42:30.442Z,99034.59
2022-08-16T14:44:57.049Z,99040.16
2022-08-16T14:47:23.706Z,99045.06
2022-08-16T14:49:51.481Z,99042.31
2022-08-16T14:52:51.862Z,99052.28
2022-08-16T14:55:09.560Z,99051.62
2022-08-16T14:57:38.686Z,99051.41
2022-08-16T15:00:11.492Z,99054.06
2022-08-16T15:02:40.310Z,99051.47
2022-08-16T15:05:08.610Z,99052.19
2022-08-16T15:07:36.077Z,99055.00
2022-08-16T15:10:05.013Z,99063.09
2022-08-16T15:12:36.072Z,99069.25
2022-08-16T15:15:12.451Z,99072.75
2022-08-16T15:17:54.111Z,99079.37
2022-08-16T15:20:26.299Z,99089.06
2022-08-16T15:22:54.731Z,99091.53
2022-08-16T15:25:35.292Z,99084.25
2022-08-16T15:28:05.323Z,99094.09
2022-08-16T15:30:57.213Z,99097.19
2022-08-16T15:33:27.333Z,99099.13
2022-08-16T15:35:57.931Z,99094.63
2022-08-16T15:38:54.765Z,99092.88
2022-08-16T15:41:43.747Z,99096.59
2022-08-16T15:44:21.272Z,99101.87
2022-08-16T15:46:55.712Z,99095.44
2022-08-16T15:49:38.077Z,99094.37
2022-08-16T15:52:29.411Z,99082.94
2022-08-16T15:54:57.298Z,99092.72
2022-08-16T15:57:26.462Z,99094.25
2022-08-16T15:59:56.088Z,99081.31
2022-08-16T16:02:31.446Z,99087.44
2022-08-16T16:05:09.743Z,99084.16
2022-08-16T16:07:37.707Z,99080.25
2022-08-16T16:10:13.478Z,99086.28
2022-08-16T16:12:51.390Z,99085.53
2022-08-16T16:15:24.347Z,99088.09
2022-08-16T16:17:52.193Z,99088.56
2022-08-16T16:20:21.444Z,99087.47
2022-08-16T16:22:49.846Z,99096.47
2022-08-16T16:25:17.707Z,99091.28
2022-08-16T16:27:45.203Z,99105.91
2022-08-16T16:30:37.721Z,99106.78
2022-08-16T16:33:02.503Z,99099.56
2022-08-16T16:35:32.631Z,99105.81
2022-08-16T16:38:00.281Z,99111.50
2022-08-16T16:40:33.162Z,99096.59
2022-08-16T16:43:02.443Z,99093.78
2022-08-16T16:45:33.528Z,99092.66
2022-08-16T16:48:12.481Z,99090.56
2022-08-16T16:50:44.443Z,99081.47
2022-08-16T16:53:17.488Z,99088.19
2022-08-16T16:55:51.688Z,99083.62
2022-08-16T16:58:38.572Z,99072.03
2022-08-16T17:01:07.760Z,99081.75
2022-08-16T17:03:35.496Z,99075.69
2022-08-16T17:06:10.437Z,99085.28
2022-08-16T17:08:41.369Z,99088.09
2022-08-16T17:11:10.108Z,99095.69
2022-08-16T17:13:37.357Z,99100.59
2022-08-16T17:16:05.421Z,99095.59
2022-08-16T17:19:17.468Z,99104.13
2022-08-16T17:21:20.271Z,99109.44
2022-08-16T17:23:58.897Z,99103.41
2022-08-16T17:26:31.006Z,99128.09
2022-08-16T17:29:02.522Z,99149.88
2022-08-16T17:31:41.168Z,99148.41
2022-08-16T17:34:29.169Z,99146.19
2022-08-16T17:37:05.352Z,99154.97
2022-08-16T17:39:54.810Z,99155.69
2022-08-16T17:42:25.253Z,99159.19
2022-08-16T17:44:52.551Z,99164.97
2022-08-16T17:47:21.365Z,99165.88
2022-08-16T17:49:48.131Z,99173.38
2022-08-16T17:52:14.845Z,99173.44
2022-08-16T17:54:41.729Z,99171.78
2022-08-16T17:57:08.418Z,99181.34
2022-08-16T17:59:40.846Z,99178.59
2022-08-16T18:02:15.337Z,99184.94
2022-08-16T18:04:58.938Z,99182.56
2022-08-16T18:07:25.547Z,99187.47
2022-08-16T18:09:52.595Z,99191.94
2022-08-16T18:12:50.991Z,99190.06
2022-08-16T18:15:14.522Z,99192.84
2022-08-16T18:17:41.992Z,99198.03
2022-08-16T18:20:28.598Z,99200.56
2022-08-16T18:23:21.919Z,99198.78
2022-08-16T18:25:56.878Z,99206.97
2022-08-16T18:28:25.170Z,99205.06
2022-08-16T18:30:57.446Z,99208.81
2022-08-16T18:33:28.211Z,99209.22
2022-08-16T18:35:57.846Z,99199.47
2022-08-16T18:38:24.824Z,99203.44
2022-08-16T18:40:51.563Z,99197.84
2022-08-16T18:43:21.211Z,99197.25
2022-08-16T18:46:07.845Z,99210.38
2022-08-16T18:48:34.695Z,99203.63
2022-08-16T18:51:09.269Z,99209.53
2022-08-16T18:53:38.316Z,99204.34
2022-08-16T18:56:05.157Z,99205.78
2022-08-16T18:58:33.894Z,99209.78
2022-08-16T19:01:00.648Z,99207.34
2022-08-16T19:03:30.979Z,99210.84
2022-08-16T19:06:02.338Z,99214.03
2022-08-16T19:08:29.632Z,99199.28
2022-08-16T19:10:56.688Z,99210.16
2022-08-16T19:13:26.714Z,99206.97
2022-08-16T19:15:55.938Z,99203.78
2022-08-16T19:18:23.570Z,99201.03
2022-08-16T19:20:51.327Z,99205.97
2022-08-16T19:23:21.398Z,99206.84
2022-08-16T19:25:54.624Z,99210.50
2022-08-16T19:28:49.620Z,99202.16
2022-08-16T19:31:31.402Z,99201.78
2022-08-16T19:33:58.536Z,99215.41
2022-08-16T19:36:37.112Z,99211.16
2022-08-16T19:39:11.261Z,99210.94
2022-08-16T19:41:44.123Z,99215.87
2022-08-16T19:44:11.875Z,99211.44
2022-08-16T19:46:41.659Z,99213.09
2022-08-16T19:49:08.325Z,99209.97
2022-08-16T19:51:35.005Z,99211.38
2022-08-16T19:54:01.703Z,99217.84
2022-08-16T19:56:30.079Z,99222.41
2022-08-16T19:59:18.237Z,99219.91
2022-08-16T20:01:46.360Z,99213.09
2022-08-16T20:04:13.433Z,99213.63
2022-08-16T20:06:42.024Z,99212.06
2022-08-16T20:09:10.920Z,99210.59
2022-08-16T20:11:41.615Z,99224.94
2022-08-16T20:14:08.242Z,99220.16
2022-08-16T20:16:34.949Z,99218.47
2022-08-16T20:19:01.649Z,99218.53
2022-08-16T20:21:28.505Z,99219.34
2022-08-16T20:24:09.985Z,99225.88
2022-08-16T20:26:41.953Z,99223.53
2022-08-16T20:29:08.588Z,99229.56
2022-08-16T20:31:35.439Z,99230.06
2022-08-16T20:34:02.269Z,99231.31
2022-08-16T20:36:29.920Z,99226.88
2022-08-16T20:38:59.620Z,99238.06
2022-08-16T20:41:27.233Z,99232.13
2022-08-16T20:43:55.165Z,99234.16
2022-08-16T20:46:22.354Z,99229.03
2022-08-16T20:48:49.348Z,99228.22
2022-08-16T20:51:16.639Z,99230.59
2022-08-16T20:53:44.214Z,99222.66
2022-08-16T20:56:12.352Z,99223.00
2022-08-16T20:58:39.068Z,99226.22
2022-08-16T21:01:06.999Z,99228.22
2022-08-16T21:03:34.196Z,99239.87
2022-08-16T21:06:04.307Z,99234.59
2022-08-16T21:08:51.682Z,99229.81
2022-08-16T21:11:20.029Z,99240.50
2022-08-16T21:13:46.792Z,99238.84
2022-08-16T21:16:15.745Z,99243.31
2022-08-16T21:18:42.628Z,99237.25
2022-08-16T21:21:09.253Z,99233.66
2022-08-16T21:23:35.878Z,99232.47
2022-08-16T21:26:04.107Z,99239.63
2022-08-16T21:28:41.589Z,99236.81
2022-08-16T21:31:15.448Z,99243.62
2022-08-16T21:33:43.212Z,99245.19
2022-08-16T21:36:11.225Z,99243.59
2022-08-16T21:38:38.860Z,99240.81
2022-08-16T21:41:08.891Z,99250.38
2022-08-16T21:43:35.799Z,99246.84
2022-08-16T21:46:04.549Z,99248.75
2022-08-16T21:48:33.761Z,99253.09
2022-08-16T21:51:10.085Z,99249.91
2022-08-16T21:53:37.654Z,99250.69
2022-08-16T21:56:06.468Z,99253.47
2022-08-16T21:58:35.508Z,99248.28
2022-08-16T22:01:02.967Z,99256.69
2022-08-16T22:03:33.541Z,99259.53
2022-08-16T22:06:12.737Z,99261.16
2022-08-16T22:08:48.915Z,99264.75
2022-08-16T22:11:23.094Z,99268.06
2022-08-16T22:13:58.007Z,99262.94
2022-08-16T22:16:36.566Z,99254.50
2022-08-16T22:19:04.833Z,99258.16
2022-08-16T22:21:32.656Z,99264.22
2022-08-16T22:23:59.874Z,99259.81
2022-08-16T22:26:40.858Z,99263.72
2022-08-16T22:29:12.337Z,99257.31
2022-08-16T22:31:57.975Z,99261.69
2022-08-16T22:35:11.635Z,99269.31
2022-08-16T22:38:10.740Z,99267.75
2022-08-16T22:40:39.401Z,99265.41
2022-08-16T22:43:07.177Z,99272.59
2022-08-16T22:45:36.309Z,99260.59
2022-08-16T22:48:04.737Z,99267.44
2022-08-16T22:50:51.346Z,99260.63
2022-08-16T22:53:19.038Z,99268.28
2022-08-16T22:55:45.708Z,99271.47
2022-08-16T22:58:13.795Z,99264.69
2022-08-16T23:00:40.908Z,99265.09
2022-08-16T23:03:12.425Z,99267.91
2022-08-16T23:05:46.212Z,99270.72
2022-08-16T23:09:17.508Z,99266.66
2022-08-16T23:11:44.323Z,99264.69
2022-08-16T23:14:11.163Z,99270.28
2022-08-16T23:16:38.806Z,99264.28
2022-08-16T23:19:10.798Z,99267.50
2022-08-16T23:21:41.023Z,99272.25
2022-08-16T23:24:08.623Z,99265.88
2022-08-16T23:26:48.505Z,99263.84
2022-08-16T23:29:24.691Z,99264.25
2022-08-16T23:31:58.935Z,99267.44
2022-08-16T23:34:27.680Z,99274.25
2022-08-16T23:36:54.841Z,99272.25
2022-08-16T23:39:22.030Z,99269.47
2022-08-16T23:42:53.658Z,99272.69
2022-08-16T23:45:46.117Z,99268.66
2022-08-16T23:48:14.544Z,99269.87
2022-08-16T23:50:44.235Z,99268.66
2022-08-16T23:53:14.181Z,99271.06
2022-08-16T23:55:44.799Z,99272.25
2022-08-16T23:58:14.455Z,99277.06
